createdAt,value
2019-03-27T00:00:10.061Z,3.60
2019-03-27T00:02:38.941Z,3.68
2019-03-27T00:05:08.103Z,3.63
2019-03-27T00:07:36.956Z,3.62
2019-03-27T00:10:08.541Z,3.64
2019-03-27T00:12:37.900Z,3.59
2019-03-27T00:15:13.466Z,3.57
2019-03-27T00:17:41.223Z,3.52
2019-03-27T00:20:10.983Z,3.46
2019-03-27T00:22:39.802Z,3.55
2019-03-27T00:25:09.060Z,3.54
2019-03-27T00:27:37.819Z,3.56
2019-03-27T00:30:11.262Z,3.54
2019-03-27T00:32:40.009Z,3.50
2019-03-27T00:35:09.585Z,3.47
2019-03-27T00:37:38.343Z,3.51
2019-03-27T00:40:08.501Z,3.53
2019-03-27T00:42:37.242Z,3.53
2019-03-27T00:45:08.222Z,3.52
2019-03-27T00:47:37.003Z,3.56
2019-03-27T00:50:08.304Z,3.58
2019-03-27T00:52:37.201Z,3.56
2019-03-27T00:55:07.270Z,3.50
2019-03-27T00:57:35.978Z,3.45
2019-03-27T01:00:10.746Z,3.37
2019-03-27T01:02:39.542Z,3.33
2019-03-27T01:05:08.370Z,3.37
2019-03-27T01:07:37.204Z,3.34
2019-03-27T01:10:05.962Z,3.33
2019-03-27T01:12:34.767Z,3.45
2019-03-27T01:15:03.932Z,3.45
2019-03-27T01:17:32.702Z,3.38
2019-03-27T01:20:01.490Z,3.36
2019-03-27T01:22:30.323Z,3.28
2019-03-27T01:24:59.105Z,3.26
2019-03-27T01:27:27.890Z,3.14
2019-03-27T01:29:56.761Z,3.16
2019-03-27T01:32:25.620Z,3.14
2019-03-27T01:34:54.362Z,3.10
2019-03-27T01:37:23.181Z,3.13
2019-03-27T01:39:51.942Z,3.21
2019-03-27T01:42:20.702Z,3.29
2019-03-27T01:44:49.544Z,3.17
2019-03-27T01:47:18.285Z,3.13
2019-03-27T01:49:47.021Z,3.05
2019-03-27T01:52:15.928Z,3.07
2019-03-27T01:54:44.702Z,3.06
2019-03-27T01:57:13.501Z,3.11
2019-03-27T01:59:42.302Z,3.12
2019-03-27T02:02:11.013Z,3.07
2019-03-27T02:04:39.848Z,3.00
2019-03-27T02:07:08.631Z,2.94
2019-03-27T02:09:37.369Z,2.86
2019-03-27T02:12:06.103Z,2.81
2019-03-27T02:14:34.891Z,2.74
2019-03-27T02:17:03.631Z,2.69
2019-03-27T02:19:32.366Z,2.65
2019-03-27T02:22:01.143Z,2.56
2019-03-27T02:24:29.876Z,2.42
2019-03-27T02:26:58.811Z,2.29
2019-03-27T02:29:27.606Z,2.21
2019-03-27T02:31:56.339Z,2.31
2019-03-27T02:34:25.081Z,1.85
2019-03-27T02:36:53.866Z,1.96
2019-03-27T02:39:22.592Z,1.54
2019-03-27T02:41:51.318Z,1.34
2019-03-27T02:44:20.114Z,1.12
2019-03-27T02:46:48.877Z,0.93
2019-03-27T02:49:17.613Z,1.04
2019-03-27T02:51:46.397Z,0.86
2019-03-27T02:54:15.135Z,0.88
2019-03-27T02:56:43.863Z,0.53
2019-03-27T02:59:12.647Z,0.53
2019-03-27T03:01:41.371Z,0.78
2019-03-27T03:04:10.114Z,0.76
2019-03-27T03:06:38.927Z,0.62
2019-03-27T03:09:08.081Z,0.58
2019-03-27T03:11:36.842Z,0.31
2019-03-27T03:14:05.689Z,0.24
2019-03-27T03:16:42.091Z,0.14
2019-03-27T03:19:04.924Z,0.10
2019-03-27T03:21:33.799Z,0.10
2019-03-27T03:24:02.537Z,0.21
2019-03-27T03:26:31.283Z,0.20
2019-03-27T03:29:00.081Z,0.11
2019-03-27T03:31:28.805Z,-0.08
2019-03-27T03:33:57.553Z,-0.36
2019-03-27T03:36:26.338Z,-0.37
2019-03-27T03:38:55.108Z,-0.46
2019-03-27T03:41:23.852Z,-0.48
2019-03-27T03:43:52.677Z,-0.42
2019-03-27T03:46:21.422Z,-0.31
2019-03-27T03:48:50.273Z,-0.66
2019-03-27T03:51:19.057Z,-0.63
2019-03-27T03:53:48.229Z,-0.58
2019-03-27T03:56:17.564Z,-0.53
2019-03-27T03:58:48.351Z,-0.60
2019-03-27T04:01:19.999Z,-0.64
2019-03-27T04:03:49.442Z,-0.85
2019-03-27T04:06:18.337Z,-0.97
2019-03-27T04:08:47.081Z,-1.12
2019-03-27T04:11:15.827Z,-1.07
2019-03-27T04:13:44.603Z,-0.95
2019-03-27T04:16:13.342Z,-0.98
2019-03-27T04:18:42.095Z,-0.94
2019-03-27T04:21:10.922Z,-0.81
2019-03-27T04:23:39.657Z,-0.51
2019-03-27T04:26:10.461Z,-0.62
2019-03-27T04:28:38.902Z,-0.42
2019-03-27T04:31:07.635Z,-0.52
2019-03-27T04:33:36.381Z,-0.62
2019-03-27T04:36:05.196Z,-0.71
2019-03-27T04:38:33.935Z,-0.66
2019-03-27T04:41:02.677Z,-0.46
2019-03-27T04:43:31.472Z,-0.42
2019-03-27T04:46:00.221Z,-0.63
2019-03-27T04:48:28.960Z,-0.85
2019-03-27T04:50:57.681Z,-0.98
2019-03-27T04:53:26.497Z,-1.03
2019-03-27T04:55:55.271Z,-0.94
2019-03-27T04:58:24.105Z,-0.93
2019-03-27T05:00:52.827Z,-0.78
2019-03-27T05:03:21.572Z,-0.72
2019-03-27T05:05:50.382Z,-0.53
2019-03-27T05:08:19.121Z,-0.77
2019-03-27T05:10:47.871Z,-0.77
2019-03-27T05:13:16.671Z,-0.81
2019-03-27T05:15:45.417Z,-0.72
2019-03-27T05:18:14.152Z,-0.76
2019-03-27T05:20:42.946Z,-0.64
2019-03-27T05:23:11.687Z,-0.56
2019-03-27T05:25:40.453Z,-0.58
2019-03-27T05:28:09.216Z,-0.54
2019-03-27T05:30:37.957Z,-0.35
2019-03-27T05:33:06.703Z,-0.12
2019-03-27T05:35:35.508Z,-0.07
2019-03-27T05:38:04.255Z,-0.05
2019-03-27T05:40:33.182Z,-0.06
2019-03-27T05:43:02.007Z,0.19
2019-03-27T05:45:30.721Z,0.33
2019-03-27T05:48:00.153Z,0.39
2019-03-27T05:50:29.021Z,0.46
2019-03-27T05:52:57.767Z,0.60
2019-03-27T05:55:26.776Z,0.69
2019-03-27T05:57:55.677Z,0.70
2019-03-27T06:00:24.422Z,0.82
2019-03-27T06:02:53.146Z,0.94
2019-03-27T06:05:21.936Z,1.08
2019-03-27T06:07:50.666Z,1.21
2019-03-27T06:10:19.382Z,1.31
2019-03-27T06:12:48.166Z,1.35
2019-03-27T06:15:16.893Z,1.38
2019-03-27T06:17:45.617Z,1.41
2019-03-27T06:20:14.516Z,1.43
2019-03-27T06:22:43.299Z,1.50
2019-03-27T06:25:12.072Z,1.62
2019-03-27T06:27:40.853Z,1.87
2019-03-27T06:30:10.796Z,2.05
2019-03-27T06:32:39.519Z,2.11
2019-03-27T06:35:08.796Z,2.19
2019-03-27T06:37:37.543Z,2.50
2019-03-27T06:40:07.498Z,2.77
2019-03-27T06:42:36.376Z,2.97
2019-03-27T06:45:06.841Z,3.11
2019-03-27T06:47:35.588Z,3.26
2019-03-27T06:50:05.381Z,3.42
2019-03-27T06:52:34.121Z,3.51
2019-03-27T06:55:02.880Z,3.66
2019-03-27T06:57:31.708Z,3.72
2019-03-27T07:00:00.420Z,3.85
2019-03-27T07:02:29.171Z,3.92
2019-03-27T07:04:59.967Z,3.98
2019-03-27T07:07:28.712Z,4.10
2019-03-27T07:09:57.458Z,4.28
2019-03-27T07:12:26.260Z,4.35
2019-03-27T07:14:55.036Z,4.30
2019-03-27T07:17:23.732Z,4.41
2019-03-27T07:19:52.531Z,4.46
2019-03-27T07:22:21.272Z,4.52
2019-03-27T07:24:50.026Z,4.63
2019-03-27T07:27:18.851Z,4.61
2019-03-27T07:29:47.554Z,4.52
2019-03-27T07:32:16.278Z,4.75
2019-03-27T07:34:45.056Z,4.80
2019-03-27T07:37:13.803Z,4.93
2019-03-27T07:39:42.511Z,4.88
2019-03-27T07:42:11.313Z,4.84
2019-03-27T07:44:40.052Z,4.98
2019-03-27T07:47:08.782Z,5.03
2019-03-27T07:49:37.596Z,5.03
2019-03-27T07:52:06.331Z,5.34
2019-03-27T07:54:35.076Z,5.52
2019-03-27T07:57:03.933Z,5.71
2019-03-27T07:59:32.661Z,5.81
2019-03-27T08:02:01.432Z,5.99
2019-03-27T08:04:30.260Z,5.95
2019-03-27T08:06:58.977Z,6.15
2019-03-27T08:09:27.722Z,6.22
2019-03-27T08:11:56.521Z,6.11
2019-03-27T08:14:28.158Z,6.08
2019-03-27T08:16:57.013Z,6.22
2019-03-27T08:19:25.827Z,6.26
2019-03-27T08:21:54.552Z,6.22
2019-03-27T08:24:23.291Z,5.57
2019-03-27T08:26:52.158Z,5.58
2019-03-27T08:29:20.897Z,5.78
2019-03-27T08:31:49.632Z,5.86
2019-03-27T08:34:18.522Z,6.13
2019-03-27T08:36:47.297Z,6.53
2019-03-27T08:39:16.032Z,6.67
2019-03-27T08:41:44.837Z,6.69
2019-03-27T08:44:13.572Z,6.65
2019-03-27T08:46:42.356Z,6.59
2019-03-27T08:49:21.731Z,6.54
2019-03-27T08:51:41.732Z,6.54
2019-03-27T08:54:10.538Z,6.25
2019-03-27T08:56:39.392Z,6.10
2019-03-27T08:59:08.116Z,6.28
2019-03-27T09:01:36.838Z,6.56
2019-03-27T09:04:05.635Z,7.19
2019-03-27T09:06:34.443Z,7.32
2019-03-27T09:09:03.886Z,6.99
2019-03-27T09:11:32.667Z,6.99
2019-03-27T09:14:01.406Z,7.14
2019-03-27T09:16:31.673Z,7.36
2019-03-27T09:19:00.467Z,7.48
2019-03-27T09:21:29.231Z,7.23
2019-03-27T09:23:57.946Z,7.02
2019-03-27T09:26:26.713Z,7.32
2019-03-27T09:28:55.487Z,7.76
2019-03-27T09:31:24.286Z,7.78
2019-03-27T09:33:53.022Z,8.05
2019-03-27T09:36:21.757Z,8.23
2019-03-27T09:38:50.528Z,8.40
2019-03-27T09:41:21.436Z,8.82
2019-03-27T09:43:49.782Z,8.87
2019-03-27T09:46:18.517Z,8.68
2019-03-27T09:48:47.246Z,8.17
2019-03-27T09:51:16.015Z,8.64
2019-03-27T09:53:44.753Z,9.08
2019-03-27T09:56:19.228Z,9.10
2019-03-27T09:58:43.997Z,9.06
2019-03-27T10:01:12.742Z,8.80
2019-03-27T10:03:41.497Z,8.80
2019-03-27T10:06:10.268Z,8.65
2019-03-27T10:08:39.102Z,8.34
2019-03-27T10:11:07.840Z,8.42
2019-03-27T10:13:37.808Z,8.51
2019-03-27T10:16:06.827Z,8.76
2019-03-27T10:18:36.257Z,8.80
2019-03-27T10:21:05.056Z,8.57
2019-03-27T10:23:33.796Z,8.29
2019-03-27T10:26:04.137Z,7.91
2019-03-27T10:28:32.909Z,7.94
2019-03-27T10:31:01.675Z,8.34
2019-03-27T10:33:30.497Z,8.38
2019-03-27T10:35:59.232Z,8.44
2019-03-27T10:38:28.725Z,8.73
2019-03-27T10:40:57.532Z,9.32
2019-03-27T10:43:26.278Z,9.90
2019-03-27T10:45:55.170Z,10.02
2019-03-27T10:48:23.866Z,10.23
2019-03-27T10:50:52.633Z,10.89
2019-03-27T10:53:21.428Z,11.44
2019-03-27T10:55:50.191Z,10.55
2019-03-27T10:58:18.993Z,10.88
2019-03-27T11:00:47.744Z,11.15
2019-03-27T11:03:16.491Z,11.72
2019-03-27T11:05:45.262Z,12.28
2019-03-27T11:08:14.022Z,12.47
2019-03-27T11:10:42.832Z,12.16
2019-03-27T11:13:11.563Z,11.65
2019-03-27T11:15:40.314Z,12.22
2019-03-27T11:18:10.181Z,12.80
2019-03-27T11:20:40.378Z,12.96
2019-03-27T11:23:09.146Z,12.74
2019-03-27T11:25:37.802Z,12.90
2019-03-27T11:28:06.621Z,12.93
2019-03-27T11:30:38.905Z,12.51
2019-03-27T11:33:07.950Z,13.16
2019-03-27T11:35:36.722Z,12.74
2019-03-27T11:38:05.787Z,13.00
2019-03-27T11:40:34.562Z,13.23
2019-03-27T11:43:03.313Z,13.05
2019-03-27T11:45:32.066Z,12.91
2019-03-27T11:48:00.840Z,13.17
2019-03-27T11:50:29.592Z,13.50
2019-03-27T11:52:58.381Z,13.95
2019-03-27T11:55:27.097Z,14.60
2019-03-27T11:57:55.856Z,15.17
2019-03-27T12:00:24.619Z,15.49
2019-03-27T12:02:53.351Z,13.14
2019-03-27T12:05:22.141Z,11.86
2019-03-27T12:07:50.879Z,10.86
2019-03-27T12:10:19.597Z,11.42
2019-03-27T12:12:48.492Z,12.18
2019-03-27T12:15:20.178Z,12.92
2019-03-27T12:17:48.992Z,13.19
2019-03-27T12:20:17.752Z,12.58
2019-03-27T12:22:57.221Z,11.83
2019-03-27T12:25:16.957Z,11.39
2019-03-27T12:27:45.697Z,11.80
2019-03-27T12:30:14.594Z,12.07
2019-03-27T12:32:43.323Z,11.92
2019-03-27T12:35:12.057Z,12.33
2019-03-27T12:37:40.823Z,12.06
2019-03-27T12:40:11.734Z,12.85
2019-03-27T12:42:40.072Z,12.74
2019-03-27T12:45:09.144Z,14.02
2019-03-27T12:47:37.877Z,13.82
2019-03-27T12:50:07.843Z,13.53
2019-03-27T12:52:36.591Z,13.44
2019-03-27T12:55:06.481Z,13.23
2019-03-27T12:57:35.210Z,12.70
2019-03-27T13:00:05.437Z,13.32
2019-03-27T13:02:34.212Z,14.40
2019-03-27T13:05:02.964Z,15.39
2019-03-27T13:07:31.731Z,16.31
2019-03-27T13:10:00.578Z,16.33
2019-03-27T13:12:29.357Z,16.42
2019-03-27T13:14:58.120Z,15.36
2019-03-27T13:17:26.862Z,13.09
2019-03-27T13:19:55.622Z,13.45
2019-03-27T13:22:24.351Z,14.03
2019-03-27T13:24:53.137Z,14.70
2019-03-27T13:27:21.877Z,15.38
2019-03-27T13:29:50.635Z,15.22
2019-03-27T13:32:19.378Z,14.61
2019-03-27T13:34:48.115Z,14.14
2019-03-27T13:37:16.912Z,13.34
2019-03-27T13:39:45.635Z,13.71
2019-03-27T13:42:14.376Z,14.56
2019-03-27T13:44:43.137Z,15.07
2019-03-27T13:47:11.994Z,13.72
2019-03-27T13:49:40.872Z,14.46
2019-03-27T13:52:09.615Z,15.31
2019-03-27T13:54:38.344Z,15.89
2019-03-27T13:57:07.092Z,16.66
2019-03-27T13:59:35.837Z,17.24
2019-03-27T14:02:04.659Z,15.93
2019-03-27T14:04:33.382Z,15.02
2019-03-27T14:07:02.132Z,15.57
2019-03-27T14:09:30.889Z,16.21
2019-03-27T14:11:59.624Z,16.40
2019-03-27T14:14:28.417Z,17.01
2019-03-27T14:16:57.181Z,16.75
2019-03-27T14:19:25.932Z,17.23
2019-03-27T14:21:55.307Z,16.42
2019-03-27T14:24:24.147Z,16.61
2019-03-27T14:26:52.952Z,17.13
2019-03-27T14:29:21.736Z,17.89
2019-03-27T14:31:50.538Z,17.92
2019-03-27T14:34:20.896Z,17.67
2019-03-27T14:36:49.666Z,16.15
2019-03-27T14:39:18.458Z,14.68
2019-03-27T14:41:47.211Z,13.98
2019-03-27T14:44:15.977Z,14.17
2019-03-27T14:46:44.751Z,13.96
2019-03-27T14:49:13.488Z,14.00
2019-03-27T14:51:42.283Z,14.28
2019-03-27T14:54:11.017Z,14.38
2019-03-27T14:56:39.759Z,14.80
2019-03-27T14:59:08.522Z,14.94
2019-03-27T15:01:37.264Z,14.49
2019-03-27T15:04:06.018Z,14.24
2019-03-27T15:06:34.743Z,13.26
2019-03-27T15:09:04.873Z,13.46
2019-03-27T15:11:33.599Z,13.78
2019-03-27T15:14:02.336Z,14.26
2019-03-27T15:16:31.111Z,14.48
2019-03-27T15:18:59.853Z,14.81
2019-03-27T15:21:28.661Z,15.13
2019-03-27T15:23:57.410Z,14.90
2019-03-27T15:26:26.158Z,14.73
2019-03-27T15:28:55.359Z,14.67
2019-03-27T15:31:24.396Z,14.94
2019-03-27T15:33:53.131Z,15.13
2019-03-27T15:36:21.953Z,14.53
2019-03-27T15:38:50.716Z,14.33
2019-03-27T15:41:19.473Z,14.47
2019-03-27T15:43:48.272Z,14.35
2019-03-27T15:46:17.044Z,14.49
2019-03-27T15:48:45.807Z,14.48
2019-03-27T15:51:14.598Z,14.27
2019-03-27T15:53:43.356Z,13.80
2019-03-27T15:56:12.106Z,13.30
2019-03-27T15:58:40.932Z,13.11
2019-03-27T16:01:09.816Z,12.90
2019-03-27T16:03:38.606Z,12.28
2019-03-27T16:06:07.487Z,12.42
2019-03-27T16:08:36.286Z,12.21
2019-03-27T16:11:05.301Z,12.36
2019-03-27T16:13:34.126Z,12.44
2019-03-27T16:16:02.905Z,12.66
2019-03-27T16:18:31.682Z,12.66
2019-03-27T16:21:00.544Z,12.70
2019-03-27T16:23:32.190Z,12.76
2019-03-27T16:25:59.974Z,12.39
2019-03-27T16:28:28.874Z,12.13
2019-03-27T16:30:57.689Z,11.71
2019-03-27T16:33:26.688Z,11.38
2019-03-27T16:35:55.511Z,10.91
2019-03-27T16:38:24.309Z,10.43
2019-03-27T16:40:53.180Z,10.15
2019-03-27T16:43:22.042Z,10.01
2019-03-27T16:45:51.155Z,9.81
2019-03-27T16:48:20.223Z,9.54
2019-03-27T16:50:49.091Z,9.34
2019-03-27T16:53:17.919Z,9.08
2019-03-27T16:55:46.911Z,8.90
2019-03-27T16:58:15.727Z,8.90
2019-03-27T17:00:44.503Z,8.51
2019-03-27T17:03:13.383Z,8.62
2019-03-27T17:05:53.353Z,8.63
2019-03-27T17:08:12.891Z,8.52
2019-03-27T17:10:41.666Z,8.52
2019-03-27T17:13:10.518Z,8.42
2019-03-27T17:15:39.529Z,8.30
2019-03-27T17:18:08.474Z,8.25
2019-03-27T17:20:37.302Z,8.16
2019-03-27T17:23:17.546Z,8.13
2019-03-27T17:25:36.691Z,8.09
2019-03-27T17:28:07.797Z,8.09
2019-03-27T17:30:36.597Z,8.01
2019-03-27T17:33:05.372Z,7.86
2019-03-27T17:35:35.640Z,7.88
2019-03-27T17:38:04.586Z,7.83
2019-03-27T17:40:33.393Z,7.79
2019-03-27T17:43:02.205Z,7.62
2019-03-27T17:45:30.993Z,7.53
2019-03-27T17:47:59.811Z,7.33
2019-03-27T17:50:28.638Z,7.19
2019-03-27T17:52:57.457Z,7.25
2019-03-27T17:55:26.302Z,7.11
2019-03-27T17:57:55.116Z,7.03
2019-03-27T18:00:35.560Z,6.94
2019-03-27T18:03:04.367Z,6.65
2019-03-27T18:05:33.176Z,6.72
2019-03-27T18:08:02.099Z,6.64
2019-03-27T18:10:30.894Z,6.59
2019-03-27T18:12:59.706Z,6.76
2019-03-27T18:15:28.533Z,7.04
2019-03-27T18:17:57.330Z,7.39
2019-03-27T18:20:26.172Z,7.64
2019-03-27T18:22:54.971Z,7.71
2019-03-27T18:25:23.787Z,7.98
2019-03-27T18:27:52.620Z,8.07
2019-03-27T18:30:21.533Z,8.39
2019-03-27T18:32:51.942Z,8.36
2019-03-27T18:35:20.792Z,8.00
2019-03-27T18:37:49.566Z,7.44
2019-03-27T18:40:18.547Z,6.85
2019-03-27T18:42:47.383Z,6.51
2019-03-27T18:45:17.913Z,6.38
2019-03-27T18:47:46.723Z,6.54
2019-03-27T18:50:15.916Z,6.81
2019-03-27T18:52:44.711Z,6.58
2019-03-27T18:55:25.845Z,6.43
2019-03-27T18:57:44.176Z,6.32
2019-03-27T19:00:13.453Z,6.29
2019-03-27T19:02:42.379Z,6.23
2019-03-27T19:05:11.382Z,6.27
2019-03-27T19:07:40.195Z,6.30
2019-03-27T19:10:09.901Z,6.29
2019-03-27T19:12:38.788Z,6.31
2019-03-27T19:15:07.863Z,6.34
2019-03-27T19:17:36.668Z,6.45
2019-03-27T19:20:08.677Z,6.63
2019-03-27T19:22:37.728Z,6.81
2019-03-27T19:25:09.788Z,6.79
2019-03-27T19:27:38.599Z,6.82
2019-03-27T19:30:09.543Z,6.72
2019-03-27T19:32:38.458Z,6.73
2019-03-27T19:35:07.689Z,6.81
2019-03-27T19:37:36.571Z,6.76
2019-03-27T19:40:07.071Z,6.85
2019-03-27T19:42:35.983Z,6.82
2019-03-27T19:45:08.847Z,6.70
2019-03-27T19:47:37.745Z,6.75
2019-03-27T19:50:07.238Z,6.75
2019-03-27T19:52:36.111Z,6.68
2019-03-27T19:55:06.146Z,6.66
2019-03-27T19:57:35.553Z,6.69
2019-03-27T20:00:10.542Z,6.82
2019-03-27T20:02:39.566Z,6.82
2019-03-27T20:05:08.674Z,6.59
2019-03-27T20:07:39.766Z,6.42
2019-03-27T20:10:09.173Z,6.17
2019-03-27T20:12:38.011Z,6.29
2019-03-27T20:15:12.753Z,6.35
2019-03-27T20:17:40.849Z,6.34
2019-03-27T20:20:10.354Z,6.01
2019-03-27T20:22:39.206Z,5.90
2019-03-27T20:25:09.341Z,5.80
2019-03-27T20:27:38.207Z,5.80
2019-03-27T20:30:12.829Z,5.60
2019-03-27T20:32:41.906Z,5.58
2019-03-27T20:35:10.887Z,5.39
2019-03-27T20:37:39.656Z,5.29
2019-03-27T20:40:09.082Z,5.13
2019-03-27T20:42:37.859Z,5.01
2019-03-27T20:45:07.486Z,4.84
2019-03-27T20:47:36.276Z,4.77
2019-03-27T20:50:07.033Z,4.77
2019-03-27T20:52:35.831Z,4.78
2019-03-27T20:55:06.621Z,4.82
2019-03-27T20:57:35.366Z,4.85
2019-03-27T21:00:06.092Z,4.99
2019-03-27T21:02:34.837Z,5.03
2019-03-27T21:05:04.461Z,5.23
2019-03-27T21:07:33.226Z,5.32
2019-03-27T21:10:02.078Z,5.40
2019-03-27T21:12:30.822Z,5.30
2019-03-27T21:14:59.646Z,5.33
2019-03-27T21:17:28.393Z,5.41
2019-03-27T21:19:57.124Z,5.37
2019-03-27T21:22:25.952Z,5.38
2019-03-27T21:25:07.656Z,5.39
2019-03-27T21:27:25.248Z,5.33
2019-03-27T21:29:54.046Z,5.27
2019-03-27T21:32:22.803Z,5.30
2019-03-27T21:34:51.552Z,5.41
2019-03-27T21:37:20.641Z,5.46
2019-03-27T21:39:49.383Z,5.29
2019-03-27T21:42:18.145Z,5.18
2019-03-27T21:44:46.941Z,5.10
2019-03-27T21:47:15.691Z,5.21
2019-03-27T21:49:44.441Z,5.24
2019-03-27T21:52:13.226Z,5.24
2019-03-27T21:54:41.972Z,5.26
2019-03-27T21:57:10.740Z,5.25
2019-03-27T21:59:39.587Z,5.28
2019-03-27T22:02:10.066Z,5.25
2019-03-27T22:04:38.798Z,5.21
2019-03-27T22:07:07.983Z,5.12
2019-03-27T22:09:36.723Z,5.23
2019-03-27T22:12:05.463Z,5.00
2019-03-27T22:14:34.222Z,5.00
2019-03-27T22:17:02.957Z,5.03
2019-03-27T22:19:31.762Z,5.11
2019-03-27T22:22:00.487Z,4.98
2019-03-27T22:24:29.231Z,5.11
2019-03-27T22:26:57.999Z,5.10
2019-03-27T22:29:26.730Z,5.11
2019-03-27T22:31:55.523Z,5.06
2019-03-27T22:34:24.236Z,4.96
2019-03-27T22:36:52.971Z,5.02
2019-03-27T22:39:22.401Z,5.14
2019-03-27T22:41:51.141Z,5.18
2019-03-27T22:44:19.908Z,5.26
2019-03-27T22:46:48.656Z,5.20
2019-03-27T22:49:17.392Z,5.30
2019-03-27T22:51:46.166Z,5.29
2019-03-27T22:54:14.911Z,5.23
2019-03-27T22:56:43.692Z,5.30
2019-03-27T22:59:12.427Z,5.32
2019-03-27T23:01:44.031Z,5.32
2019-03-27T23:04:12.798Z,5.36
2019-03-27T23:06:41.532Z,5.27
2019-03-27T23:09:10.277Z,5.28
2019-03-27T23:11:39.020Z,5.31
2019-03-27T23:14:07.759Z,5.45
2019-03-27T23:16:36.525Z,5.51
2019-03-27T23:19:05.259Z,5.57
2019-03-27T23:21:34.022Z,5.65
2019-03-27T23:24:02.751Z,5.90
2019-03-27T23:26:31.531Z,5.89
2019-03-27T23:29:00.261Z,5.81
2019-03-27T23:31:28.983Z,5.91
2019-03-27T23:34:00.373Z,5.88
2019-03-27T23:36:28.209Z,5.96
2019-03-27T23:38:56.974Z,5.96
2019-03-27T23:41:25.687Z,5.95
2019-03-27T23:43:54.423Z,5.95
2019-03-27T23:46:23.176Z,5.95
2019-03-27T23:48:51.916Z,5.93
2019-03-27T23:51:20.699Z,5.99
2019-03-27T23:53:49.426Z,6.11
2019-03-27T23:56:18.168Z,6.10
2019-03-27T23:58:46.935Z,6.05
